Air Navigation Services of Czech Republic
Airport: LKKV Updated:  25.03.2017 07:34:05  UTC
 METAR LKKV 25.03. 07:30 ...
METAR LKKV 250730Z 06005KT 030V090 CAVOK 05/M01 Q1028=
 TAF LKKV 25.03. 05:00 ...
TAF LKKV 250500Z 2506/2612 07005KT CAVOK=